Time;durP1;ratioP1;P1;durP2;ratioP2;P2;SDS_P1;SDS_P2;PMS_P1;PMS_P2;Temp;Humidity;BMP_temperature;BMP_pressure;BME280_temperature;BME280_humidity;BME280_pressure;Samples;Min_cycle;Max_cycle;Signal;HPM_P1;HPM_P2
2021/09/08 00:01:30;;;;;;;18.47;12.00;;;16.90;86.90;;;;;;5033112;28;20201;-73
2021/09/08 00:03:56;;;;;;;21.50;11.50;;;16.90;86.90;;;;;;5024548;28;20238;-75
2021/09/08 00:06:22;;;;;;;20.03;12.40;;;16.90;86.90;;;;;;5031622;28;20213;-75
2021/09/08 00:08:47;;;;;;;21.43;13.30;;;16.90;86.90;;;;;;5032917;28;20196;-75
2021/09/08 00:11:13;;;;;;;20.50;12.43;;;16.90;86.90;;;;;;5032672;28;20338;-74
2021/09/08 00:13:39;;;;;;;22.20;12.37;;;16.90;87.00;;;;;;5032535;28;20189;-74
2021/09/08 00:16:05;;;;;;;20.17;11.90;;;16.90;87.00;;;;;;5032408;28;20189;-73
2021/09/08 00:18:30;;;;;;;20.60;12.10;;;16.80;87.10;;;;;;5032954;28;20183;-74
2021/09/08 00:20:56;;;;;;;22.13;13.40;;;16.80;87.30;;;;;;5032851;28;21123;-73
2021/09/08 00:23:22;;;;;;;22.87;13.47;;;16.80;87.60;;;;;;5032183;28;20194;-74
2021/09/08 00:25:48;;;;;;;23.47;13.00;;;16.80;87.30;;;;;;5025589;28;20216;-75
2021/09/08 00:28:13;;;;;;;22.33;12.17;;;16.80;87.30;;;;;;5033074;28;20187;-75
2021/09/08 00:30:39;;;;;;;23.70;13.30;;;16.80;87.40;;;;;;5026165;28;20255;-74
2021/09/08 00:33:05;;;;;;;21.00;12.40;;;16.80;87.40;;;;;;5033019;28;20219;-74
2021/09/08 00:35:30;;;;;;;20.83;12.23;;;16.70;87.40;;;;;;5032445;28;20209;-74
2021/09/08 00:37:56;;;;;;;19.73;12.10;;;16.70;87.30;;;;;;5032020;28;20261;-73
2021/09/08 00:40:23;;;;;;;16.57;11.90;;;16.70;87.10;;;;;;5031097;28;20672;-72
2021/09/08 00:42:49;;;;;;;22.13;12.43;;;16.60;87.40;;;;;;5032203;28;20686;-73
2021/09/08 00:45:15;;;;;;;24.60;12.67;;;16.60;87.60;;;;;;5032284;28;20448;-74
2021/09/08 00:47:41;;;;;;;20.47;11.70;;;16.60;87.40;;;;;;5030646;28;20435;-74
2021/09/08 00:50:09;;;;;;;21.30;12.13;;;16.60;87.40;;;;;;5037221;28;20208;-74
2021/09/08 00:52:37;;;;;;;16.53;12.07;;;16.60;87.60;;;;;;5031824;28;20254;-74
2021/09/08 00:55:04;;;;;;;20.60;12.50;;;16.60;87.60;;;;;;5031897;28;20447;-75
2021/09/08 00:57:32;;;;;;;20.57;12.70;;;16.50;87.70;;;;;;5032281;28;21004;-74
2021/09/08 00:59:58;;;;;;;20.77;11.47;;;16.50;87.80;;;;;;5032174;28;20427;-74
2021/09/08 01:02:24;;;;;;;23.57;13.03;;;16.50;88.00;;;;;;5032689;28;20431;-73
2021/09/08 01:04:50;;;;;;;19.47;11.93;;;16.50;88.10;;;;;;5031366;28;20211;-73
2021/09/08 01:07:15;;;;;;;20.87;12.70;;;16.50;88.10;;;;;;5032911;28;20471;-74
2021/09/08 01:09:42;;;;;;;25.07;13.60;;;16.40;88.10;;;;;;5032711;28;20184;-75
2021/09/08 01:12:08;;;;;;;18.73;11.90;;;16.40;88.40;;;;;;5023485;28;20717;-74
2021/09/08 01:14:34;;;;;;;23.13;13.23;;;16.30;88.70;;;;;;5027041;28;20473;-74
2021/09/08 01:17:00;;;;;;;24.77;13.40;;;16.30;88.90;;;;;;5023672;28;20294;-75
2021/09/08 01:19:26;;;;;;;20.37;13.00;;;16.20;89.20;;;;;;5031611;28;20505;-74
2021/09/08 01:21:52;;;;;;;20.93;12.53;;;16.10;89.30;;;;;;5031298;28;20191;-74
2021/09/08 01:24:18;;;;;;;21.70;12.90;;;16.10;89.50;;;;;;5031236;28;20439;-74
2021/09/08 01:26:46;;;;;;;21.63;13.90;;;16.10;89.50;;;;;;5031247;28;20419;-75
2021/09/08 01:29:12;;;;;;;17.53;11.87;;;16.10;89.50;;;;;;5031681;28;20185;-75
2021/09/08 01:31:38;;;;;;;22.80;13.73;;;16.10;89.50;;;;;;5031514;28;20474;-75
2021/09/08 01:34:05;;;;;;;23.50;12.77;;;16.10;89.60;;;;;;5031317;28;20460;-74
2021/09/08 01:36:41;;;;;;;22.77;13.00;;;16.00;89.90;;;;;;5029785;28;20441;-75
2021/09/08 01:39:07;;;;;;;22.77;12.50;;;16.00;89.90;;;;;;5031504;28;20426;-75
2021/09/08 01:41:33;;;;;;;18.27;12.10;;;16.00;89.90;;;;;;5029842;28;20420;-75
2021/09/08 01:43:59;;;;;;;19.00;12.27;;;16.00;89.90;;;;;;5029681;28;20471;-75
2021/09/08 01:46:24;;;;;;;23.00;13.23;;;15.90;89.90;;;;;;5032127;28;20460;-74
2021/09/08 01:48:50;;;;;;;19.93;13.40;;;15.90;90.00;;;;;;5054004;28;20286;-75
2021/09/08 01:51:17;;;;;;;22.47;13.70;;;15.80;90.00;;;;;;5035426;28;20694;-74
2021/09/08 01:53:43;;;;;;;21.90;13.00;;;15.80;90.20;;;;;;5030600;28;20926;-75
2021/09/08 01:56:09;;;;;;;24.10;13.60;;;15.80;90.30;;;;;;5028059;28;20428;-74
2021/09/08 01:58:36;;;;;;;19.83;12.23;;;15.90;90.40;;;;;;5030625;28;20458;-75
2021/09/08 02:01:03;;;;;;;18.90;12.67;;;15.80;90.40;;;;;;5023974;28;20427;-74
2021/09/08 02:03:29;;;;;;;20.77;12.87;;;15.80;90.60;;;;;;5024283;28;20440;-74
2021/09/08 02:05:55;;;;;;;21.53;13.30;;;15.70;90.50;;;;;;5028064;28;21006;-75
2021/09/08 02:08:20;;;;;;;23.47;13.27;;;15.60;90.80;;;;;;5030063;28;20292;-74
2021/09/08 02:10:46;;;;;;;25.63;13.17;;;15.60;91.00;;;;;;5030482;28;20241;-76
2021/09/08 02:13:12;;;;;;;25.27;14.10;;;15.60;91.20;;;;;;5030284;28;20263;-76
2021/09/08 02:15:37;;;;;;;22.23;12.83;;;15.50;91.20;;;;;;5022688;28;20672;-76
2021/09/08 02:18:03;;;;;;;23.90;14.20;;;15.40;91.40;;;;;;5030200;28;20606;-75
2021/09/08 02:20:29;;;;;;;22.77;13.90;;;15.40;91.60;;;;;;5026866;28;20194;-75
2021/09/08 02:22:55;;;;;;;23.33;13.03;;;15.30;91.80;;;;;;5030434;28;20439;-75
2021/09/08 02:25:21;;;;;;;23.83;12.67;;;15.40;91.80;;;;;;5028374;28;20828;-77
2021/09/08 02:27:46;;;;;;;28.10;14.87;;;15.40;91.80;;;;;;5029965;28;20270;-75
2021/09/08 02:30:13;;;;;;;25.50;14.90;;;15.50;91.40;;;;;;5030311;28;20207;-76
2021/09/08 02:32:39;;;;;;;22.23;13.33;;;15.50;91.30;;;;;;5030205;28;20210;-76
2021/09/08 02:35:06;;;;;;;24.77;14.80;;;15.40;91.40;;;;;;5029394;28;20501;-76
2021/09/08 02:37:32;;;;;;;24.00;14.07;;;15.40;91.70;;;;;;5028423;28;20201;-75
2021/09/08 02:39:58;;;;;;;21.90;13.23;;;15.40;91.70;;;;;;5028917;28;21056;-76
2021/09/08 02:42:23;;;;;;;21.07;12.83;;;15.40;91.70;;;;;;5030124;28;20203;-76
2021/09/08 02:44:49;;;;;;;20.83;11.70;;;15.40;91.70;;;;;;5029483;28;20299;-75
2021/09/08 02:47:16;;;;;;;17.10;12.00;;;15.40;91.60;;;;;;5029499;28;20193;-75
2021/09/08 02:49:42;;;;;;;23.20;14.40;;;15.40;91.50;;;;;;5030265;28;20942;-75
2021/09/08 02:52:08;;;;;;;22.10;13.27;;;15.30;91.50;;;;;;5029119;28;20518;-75
2021/09/08 02:54:34;;;;;;;21.10;12.60;;;15.30;91.60;;;;;;5029415;28;20477;-76
2021/09/08 02:57:00;;;;;;;24.80;14.27;;;15.30;91.50;;;;;;5028450;28;20822;-76
2021/09/08 02:59:26;;;;;;;22.53;13.23;;;15.30;91.60;;;;;;5029717;28;20431;-77
2021/09/08 03:01:53;;;;;;;25.07;14.13;;;15.30;91.60;;;;;;5024815;28;20437;-76
2021/09/08 03:04:18;;;;;;;25.50;12.83;;;15.30;91.70;;;;;;5027092;28;20547;-76
2021/09/08 03:06:47;;;;;;;30.63;14.90;;;15.20;91.60;;;;;;5028195;28;20439;-75
2021/09/08 03:09:13;;;;;;;21.80;12.50;;;15.20;91.70;;;;;;5029541;28;20687;-75
2021/09/08 03:11:40;;;;;;;21.47;12.47;;;15.20;91.70;;;;;;5028517;28;20469;-75
2021/09/08 03:14:06;;;;;;;30.27;13.00;;;15.20;91.80;;;;;;5029281;28;20437;-75
2021/09/08 03:16:32;;;;;;;23.67;13.97;;;15.20;91.80;;;;;;5029050;28;20777;-75
2021/09/08 03:18:57;;;;;;;24.13;13.13;;;15.20;91.80;;;;;;5028302;28;20177;-74
2021/09/08 03:21:23;;;;;;;20.73;12.30;;;15.20;91.90;;;;;;5028758;28;20255;-77
2021/09/08 03:23:49;;;;;;;19.13;12.73;;;15.10;92.00;;;;;;5029195;28;20691;-76
2021/09/08 03:26:15;;;;;;;28.43;14.17;;;15.10;92.10;;;;;;5028959;28;20632;-76
2021/09/08 03:28:40;;;;;;;21.00;12.77;;;15.10;92.10;;;;;;5030001;28;20198;-76
2021/09/08 03:31:06;;;;;;;22.23;14.03;;;15.10;92.10;;;;;;5029902;28;20464;-76
2021/09/08 03:33:32;;;;;;;23.27;13.57;;;15.10;92.20;;;;;;5029007;28;20182;-77
2021/09/08 03:35:57;;;;;;;25.93;14.30;;;15.00;92.30;;;;;;5029861;28;20230;-75
2021/09/08 03:38:23;;;;;;;22.87;14.10;;;15.00;92.40;;;;;;5028362;28;20185;-75
2021/09/08 03:40:49;;;;;;;23.50;14.63;;;15.00;92.40;;;;;;5029559;28;20181;-76
2021/09/08 03:43:14;;;;;;;25.30;14.00;;;15.10;92.20;;;;;;5029206;28;20254;-76
2021/09/08 03:45:40;;;;;;;26.07;14.30;;;15.00;92.10;;;;;;5027412;28;20746;-76
2021/09/08 03:48:06;;;;;;;24.77;14.50;;;15.00;92.10;;;;;;5029330;28;20181;-76
2021/09/08 03:50:31;;;;;;;26.93;14.43;;;14.90;92.30;;;;;;5029292;28;20205;-76
2021/09/08 03:52:57;;;;;;;26.67;15.33;;;14.90;92.40;;;;;;5027854;28;20239;-75
2021/09/08 03:55:23;;;;;;;30.00;15.77;;;14.80;92.50;;;;;;5028384;28;20216;-76
2021/09/08 03:57:49;;;;;;;26.63;14.87;;;14.80;92.50;;;;;;5029014;28;20178;-76
2021/09/08 04:00:15;;;;;;;28.50;16.03;;;14.80;92.60;;;;;;5027691;28;20197;-76
2021/09/08 04:02:40;;;;;;;24.43;15.27;;;14.70;92.80;;;;;;5029294;28;20554;-76
2021/09/08 04:05:07;;;;;;;28.47;15.03;;;14.70;92.80;;;;;;5028506;28;20562;-76
2021/09/08 04:07:32;;;;;;;26.43;15.50;;;14.70;92.80;;;;;;5027547;28;20593;-76
2021/09/08 04:09:58;;;;;;;27.50;15.83;;;14.70;92.90;;;;;;5029238;28;20464;-76
2021/09/08 04:12:24;;;;;;;25.83;14.83;;;14.70;93.00;;;;;;5029189;28;20591;-76
2021/09/08 04:14:50;;;;;;;27.20;15.30;;;14.70;93.10;;;;;;5037622;28;20236;-76
2021/09/08 04:17:15;;;;;;;27.87;15.40;;;14.60;93.20;;;;;;5052461;28;20222;-76
2021/09/08 04:19:41;;;;;;;28.87;15.83;;;14.60;93.20;;;;;;5042742;28;20190;-76
2021/09/08 04:22:07;;;;;;;25.37;14.07;;;14.60;93.40;;;;;;5033363;28;20648;-76
2021/09/08 04:24:32;;;;;;;27.63;14.10;;;14.60;93.40;;;;;;5031756;28;20209;-77
2021/09/08 04:26:58;;;;;;;28.27;14.77;;;14.60;93.30;;;;;;5032217;28;20193;-76
2021/09/08 04:29:24;;;;;;;24.60;14.40;;;14.60;93.30;;;;;;5032264;28;20276;-77
2021/09/08 04:31:50;;;;;;;26.70;14.90;;;14.60;93.30;;;;;;5032484;28;20238;-77
2021/09/08 04:34:15;;;;;;;25.20;13.87;;;14.60;93.20;;;;;;5030394;28;20248;-77
2021/09/08 04:36:41;;;;;;;26.20;14.97;;;14.60;93.30;;;;;;5031879;28;20871;-76
2021/09/08 04:39:07;;;;;;;24.57;15.60;;;14.60;93.30;;;;;;5032317;28;20181;-77
2021/09/08 04:41:32;;;;;;;23.70;14.13;;;14.60;93.40;;;;;;5032277;28;20196;-76
2021/09/08 04:43:58;;;;;;;25.40;14.00;;;14.60;93.40;;;;;;5031500;28;20209;-77
2021/09/08 04:46:24;;;;;;;31.03;15.50;;;14.50;93.40;;;;;;5031653;28;20185;-76
2021/09/08 04:48:50;;;;;;;27.13;15.40;;;14.50;93.40;;;;;;5032146;28;20577;-76
2021/09/08 04:51:15;;;;;;;27.43;14.70;;;14.50;93.40;;;;;;5033738;28;20209;-75
2021/09/08 04:53:41;;;;;;;29.90;15.30;;;14.50;93.50;;;;;;5032079;28;20185;-77
2021/09/08 04:56:07;;;;;;;27.00;15.00;;;14.50;93.40;;;;;;5030276;28;20236;-75
2021/09/08 04:58:32;;;;;;;29.20;15.37;;;14.50;93.20;;;;;;5031844;28;20189;-76
2021/09/08 05:00:58;;;;;;;28.43;15.73;;;14.40;93.20;;;;;;5031925;28;20200;-76
2021/09/08 05:03:24;;;;;;;25.37;14.50;;;14.40;93.40;;;;;;5030564;28;20227;-76
2021/09/08 05:05:49;;;;;;;28.47;15.30;;;14.40;93.40;;;;;;5026155;28;20232;-76
2021/09/08 05:08:15;;;;;;;27.23;15.20;;;14.40;93.30;;;;;;5024727;28;20737;-76
2021/09/08 05:10:41;;;;;;;35.63;15.00;;;14.40;93.30;;;;;;5031936;28;20217;-76
2021/09/08 05:13:07;;;;;;;26.23;15.00;;;14.40;93.20;;;;;;5027049;28;20236;-77
2021/09/08 05:15:32;;;;;;;26.20;14.30;;;14.40;93.30;;;;;;5030776;28;20201;-76
2021/09/08 05:17:58;;;;;;;23.80;13.10;;;14.40;93.20;;;;;;5030665;28;20243;-77
2021/09/08 05:20:24;;;;;;;23.37;14.40;;;14.40;93.20;;;;;;5031680;28;20185;-75
2021/09/08 05:22:50;;;;;;;21.80;14.10;;;14.40;93.00;;;;;;5032128;28;20251;-77
2021/09/08 05:25:15;;;;;;;28.43;15.00;;;14.40;93.20;;;;;;5030878;28;20598;-76
2021/09/08 05:27:41;;;;;;;26.67;16.17;;;14.40;93.00;;;;;;5032805;28;20272;-76
2021/09/08 05:30:07;;;;;;;26.30;15.20;;;14.40;93.10;;;;;;5033068;28;20215;-77
2021/09/08 05:32:33;;;;;;;35.13;17.90;;;14.50;93.00;;;;;;5032096;28;20644;-76
2021/09/08 05:34:59;;;;;;;31.07;17.10;;;14.50;92.80;;;;;;5029491;28;20518;-76
2021/09/08 05:37:24;;;;;;;29.73;16.47;;;14.50;93.00;;;;;;5037481;28;20201;-76
2021/09/08 05:39:50;;;;;;;27.83;16.73;;;14.40;93.00;;;;;;5040145;28;20189;-76
2021/09/08 05:42:16;;;;;;;31.13;15.70;;;14.40;93.10;;;;;;5042165;28;20192;-76
2021/09/08 05:44:42;;;;;;;20.07;14.23;;;14.40;93.10;;;;;;5041304;28;20197;-77
2021/09/08 05:47:08;;;;;;;26.27;14.87;;;14.40;93.20;;;;;;5038615;28;20435;-76
2021/09/08 05:49:33;;;;;;;20.00;13.87;;;14.40;93.30;;;;;;5042581;28;20186;-73
2021/09/08 05:51:59;;;;;;;28.00;15.23;;;14.50;93.20;;;;;;5043900;28;20292;-74
2021/09/08 05:54:25;;;;;;;24.00;15.13;;;14.50;92.90;;;;;;5042128;28;20195;-74
2021/09/08 05:56:51;;;;;;;20.90;12.67;;;14.60;92.90;;;;;;5035946;28;20421;-75
2021/09/08 05:59:17;;;;;;;31.70;15.37;;;14.60;92.80;;;;;;5040493;28;20443;-75
2021/09/08 06:01:43;;;;;;;26.87;15.90;;;14.60;92.50;;;;;;5028681;28;20296;-74
2021/09/08 06:04:08;;;;;;;29.73;15.63;;;14.70;92.30;;;;;;5030374;28;20789;-74
2021/09/08 06:06:34;;;;;;;26.77;14.30;;;14.70;92.20;;;;;;5035745;28;20200;-75
2021/09/08 06:09:00;;;;;;;23.53;13.00;;;14.80;92.20;;;;;;5042039;28;20220;-75
2021/09/08 06:11:25;;;;;;;26.23;14.30;;;14.90;92.20;;;;;;5041562;28;20205;-76
2021/09/08 06:13:53;;;;;;;26.87;14.67;;;14.90;92.10;;;;;;5042290;28;20209;-75
2021/09/08 06:16:23;;;;;;;24.27;13.67;;;15.00;92.10;;;;;;5041800;28;20187;-76
2021/09/08 06:18:49;;;;;;;27.53;16.37;;;15.10;91.70;;;;;;5040357;28;20923;-74
2021/09/08 06:21:14;;;;;;;27.50;15.37;;;15.10;91.40;;;;;;5036565;28;20516;-75
2021/09/08 06:23:40;;;;;;;27.20;16.37;;;15.30;90.90;;;;;;5044047;28;20217;-75
2021/09/08 06:26:06;;;;;;;31.00;16.77;;;15.30;90.70;;;;;;5039786;28;20192;-75
2021/09/08 06:28:31;;;;;;;27.57;16.03;;;15.30;90.70;;;;;;5045284;28;20220;-74
2021/09/08 06:30:57;;;;;;;32.90;17.40;;;15.30;90.70;;;;;;5037039;28;20213;-75
2021/09/08 06:33:23;;;;;;;31.70;16.77;;;15.30;90.70;;;;;;5027423;28;20224;-75
2021/09/08 06:35:50;;;;;;;28.57;17.40;;;15.30;90.80;;;;;;5030138;28;20237;-74
2021/09/08 06:38:16;;;;;;;31.73;18.60;;;15.30;90.80;;;;;;5032470;28;20335;-76
2021/09/08 06:40:41;;;;;;;33.20;17.83;;;15.30;90.80;;;;;;5027321;28;20425;-76
2021/09/08 06:43:07;;;;;;;35.13;18.13;;;15.30;90.80;;;;;;5028155;28;20476;-75
2021/09/08 06:45:33;;;;;;;33.37;18.70;;;15.40;90.50;;;;;;5030303;28;20210;-75
2021/09/08 06:47:59;;;;;;;28.87;16.97;;;15.40;90.60;;;;;;5028284;28;20428;-75
2021/09/08 06:50:25;;;;;;;30.50;16.60;;;15.30;90.90;;;;;;5031848;28;20464;-75
2021/09/08 06:52:51;;;;;;;32.77;18.00;;;15.50;90.70;;;;;;5029528;28;20523;-74
2021/09/08 06:55:17;;;;;;;31.03;16.87;;;15.50;90.70;;;;;;5030043;28;20525;-74
2021/09/08 06:57:42;;;;;;;32.20;16.80;;;15.60;90.60;;;;;;5030094;28;20212;-76
2021/09/08 07:00:09;;;;;;;37.70;17.87;;;15.70;90.20;;;;;;5028336;28;20239;-75
2021/09/08 07:02:35;;;;;;;31.07;16.57;;;15.80;90.10;;;;;;5031471;28;20193;-75
2021/09/08 07:05:01;;;;;;;28.37;17.23;;;15.80;89.70;;;;;;5031523;28;20454;-76
2021/09/08 07:07:27;;;;;;;27.10;15.93;;;15.90;89.90;;;;;;5030974;28;20169;-76
2021/09/08 07:09:53;;;;;;;30.90;19.10;;;15.90;89.90;;;;;;5025931;28;20421;-75
2021/09/08 07:12:18;;;;;;;33.57;17.80;;;16.00;89.70;;;;;;5029230;28;20173;-75
2021/09/08 07:14:44;;;;;;;32.03;17.50;;;15.90;89.90;;;;;;5029647;28;20214;-76
2021/09/08 07:17:10;;;;;;;30.20;17.67;;;16.00;89.70;;;;;;5031681;28;20288;-75
2021/09/08 07:19:36;;;;;;;35.73;19.00;;;16.10;89.60;;;;;;5029873;28;20180;-77
2021/09/08 07:22:02;;;;;;;37.03;17.60;;;16.20;89.50;;;;;;5032931;28;20680;-76
2021/09/08 07:24:27;;;;;;;33.93;19.23;;;16.30;89.00;;;;;;5029057;28;20222;-77
2021/09/08 07:26:56;;;;;;;37.90;19.07;;;16.40;88.60;;;;;;5028369;28;20435;-78
2021/09/08 07:29:22;;;;;;;32.83;18.77;;;16.50;88.10;;;;;;5029527;28;20220;-77
2021/09/08 07:31:48;;;;;;;30.00;18.10;;;16.60;87.70;;;;;;5028905;28;21063;-76
2021/09/08 07:34:14;;;;;;;36.30;19.43;;;16.70;87.30;;;;;;5020600;28;20497;-77
2021/09/08 07:36:39;;;;;;;33.77;19.50;;;16.80;87.30;;;;;;5029503;28;20201;-75
2021/09/08 07:39:05;;;;;;;37.30;19.70;;;16.90;86.90;;;;;;5030272;28;20609;-77
2021/09/08 07:41:31;;;;;;;39.30;18.67;;;17.00;86.50;;;;;;5029767;28;20185;-79
2021/09/08 07:43:57;;;;;;;36.70;19.70;;;17.10;85.60;;;;;;5025429;28;20216;-76
2021/09/08 07:46:22;;;;;;;34.23;18.30;;;17.20;85.30;;;;;;5028550;28;20741;-76
2021/09/08 07:48:48;;;;;;;36.50;19.17;;;17.30;85.50;;;;;;5030823;28;20699;-76
2021/09/08 07:51:14;;;;;;;35.23;19.60;;;17.40;84.00;;;;;;5030443;28;20219;-77
2021/09/08 07:53:39;;;;;;;38.63;18.87;;;17.50;84.00;;;;;;5030098;28;20188;-77
2021/09/08 07:56:05;;;;;;;29.17;16.20;;;17.60;83.00;;;;;;5033028;28;20190;-76
2021/09/08 07:58:31;;;;;;;30.30;16.93;;;17.70;82.70;;;;;;5036848;28;20192;-77
2021/09/08 08:00:57;;;;;;;31.20;16.03;;;17.90;81.70;;;;;;5030136;28;20423;-76
2021/09/08 08:03:23;;;;;;;29.93;15.03;;;17.90;80.50;;;;;;5033506;28;20434;-76
2021/09/08 08:05:49;;;;;;;33.37;17.00;;;18.10;79.20;;;;;;5032186;28;20212;-79
2021/09/08 08:08:15;;;;;;;29.70;16.73;;;18.10;78.10;;;;;;5033576;28;20476;-77
2021/09/08 08:10:41;;;;;;;26.57;14.90;;;18.20;78.60;;;;;;5033665;28;20691;-77
2021/09/08 08:13:07;;;;;;;21.93;13.20;;;18.30;77.10;;;;;;5033270;28;20420;-77
2021/09/08 08:15:33;;;;;;;23.33;13.97;;;18.40;76.50;;;;;;5033546;28;20467;-77
2021/09/08 08:17:59;;;;;;;26.33;13.80;;;18.50;76.10;;;;;;5027636;28;20962;-77
2021/09/08 08:20:25;;;;;;;25.30;13.43;;;18.50;75.10;;;;;;5031893;28;20435;-77
2021/09/08 08:22:51;;;;;;;22.33;13.40;;;18.60;74.90;;;;;;5033068;28;20204;-77
2021/09/08 08:25:20;;;;;;;21.07;12.80;;;18.80;74.90;;;;;;5032684;28;20451;-77
2021/09/08 08:27:47;;;;;;;20.57;11.70;;;18.80;74.20;;;;;;5032483;28;20939;-78
2021/09/08 08:30:15;;;;;;;20.80;12.63;;;19.00;73.50;;;;;;5034380;28;20463;-78
2021/09/08 08:32:41;;;;;;;20.10;12.13;;;19.10;72.70;;;;;;5034031;28;20424;-78
2021/09/08 08:35:08;;;;;;;17.43;11.80;;;19.20;72.00;;;;;;5032826;28;20605;-77
2021/09/08 08:37:34;;;;;;;25.87;13.03;;;19.40;71.70;;;;;;5033046;28;20446;-77
2021/09/08 08:40:02;;;;;;;22.07;11.43;;;19.50;71.00;;;;;;5034056;28;20806;-76
2021/09/08 08:42:28;;;;;;;22.03;11.43;;;19.60;70.70;;;;;;5034261;28;20420;-78
2021/09/08 08:44:54;;;;;;;19.60;11.10;;;19.60;70.70;;;;;;5033361;28;20449;-78
2021/09/08 08:47:20;;;;;;;19.83;11.93;;;19.70;71.00;;;;;;5031153;28;20544;-75
2021/09/08 08:49:47;;;;;;;16.30;11.03;;;19.80;71.00;;;;;;5034819;28;20782;-75
2021/09/08 08:52:14;;;;;;;18.43;11.00;;;20.00;68.90;;;;;;5033863;28;20546;-77
2021/09/08 08:54:40;;;;;;;20.93;11.77;;;20.20;68.50;;;;;;5033954;28;20849;-77
2021/09/08 08:57:09;;;;;;;20.17;10.60;;;20.30;67.70;;;;;;5034877;28;20423;-76
2021/09/08 08:59:37;;;;;;;16.87;9.80;;;20.50;68.00;;;;;;5033985;28;20181;-75
2021/09/08 09:02:25;;;;;;;19.40;11.10;;;20.60;66.90;;;;;;5033442;28;20427;-78
2021/09/08 09:04:56;;;;;;;19.50;11.33;;;20.70;66.10;;;;;;5030078;28;20476;-78
2021/09/08 09:07:29;;;;;;;22.67;10.93;;;20.80;66.10;;;;;;5032286;28;21012;-77
2021/09/08 09:10:03;;;;;;;19.33;11.40;;;20.90;64.10;;;;;;5033197;28;20428;-77
2021/09/08 09:12:35;;;;;;;20.83;11.80;;;21.00;64.20;;;;;;5026876;28;20478;-76
2021/09/08 09:15:07;;;;;;;18.40;11.10;;;21.10;64.20;;;;;;5032600;28;20483;-77
2021/09/08 09:17:35;;;;;;;16.20;10.27;;;21.20;64.10;;;;;;5029964;28;20428;-76
2021/09/08 09:20:10;;;;;;;19.30;10.30;;;21.20;63.50;;;;;;5032686;28;20464;-78
2021/09/08 09:22:41;;;;;;;16.00;10.07;;;21.30;63.70;;;;;;5032406;28;20930;-77
2021/09/08 09:25:10;;;;;;;15.97;11.37;;;21.50;62.60;;;;;;5030004;28;20440;-77
2021/09/08 09:27:53;;;;;;;17.07;10.47;;;21.50;62.50;;;;;;5032542;28;20448;-77
2021/09/08 09:30:23;;;;;;;16.70;9.63;;;21.60;62.50;;;;;;5032545;28;20555;-76
2021/09/08 09:32:51;;;;;;;14.57;9.03;;;21.70;62.20;;;;;;5031922;28;20421;-76
2021/09/08 09:35:20;;;;;;;13.23;9.00;;;21.80;61.60;;;;;;5030057;28;20535;-77
2021/09/08 09:37:51;;;;;;;12.63;9.33;;;21.80;62.80;;;;;;5026322;28;20512;-77
2021/09/08 09:40:24;;;;;;;15.13;8.83;;;21.90;61.30;;;;;;5032371;28;20434;-77
2021/09/08 09:42:49;;;;;;;14.97;9.57;;;22.10;60.40;;;;;;5031704;28;20469;-75
2021/09/08 09:45:15;;;;;;;13.50;9.50;;;22.10;60.30;;;;;;5025748;28;20968;-76
2021/09/08 09:47:44;;;;;;;12.43;8.63;;;22.20;59.60;;;;;;5032352;28;20274;-77
2021/09/08 09:50:14;;;;;;;14.03;9.37;;;22.20;58.90;;;;;;5032332;28;20225;-79
2021/09/08 09:52:40;;;;;;;15.57;9.83;;;22.20;60.00;;;;;;5032573;28;20431;-77
2021/09/08 09:55:06;;;;;;;14.50;8.90;;;22.30;59.90;;;;;;5031046;28;20450;-75
2021/09/08 09:57:32;;;;;;;13.30;8.37;;;22.40;59.10;;;;;;5043052;28;20195;-77
2021/09/08 09:59:59;;;;;;;12.50;8.53;;;22.50;58.80;;;;;;5050961;28;20439;-75
2021/09/08 10:02:26;;;;;;;15.10;9.87;;;22.50;58.90;;;;;;5052850;28;20179;-74
2021/09/08 10:04:53;;;;;;;13.47;8.97;;;22.60;58.70;;;;;;5054323;28;20484;-74
2021/09/08 10:07:24;;;;;;;14.20;8.90;;;22.60;59.50;;;;;;5053885;28;20431;-75
2021/09/08 10:09:56;;;;;;;12.67;8.60;;;22.80;58.80;;;;;;5052169;28;20448;-74
2021/09/08 10:12:32;;;;;;;13.33;8.23;;;22.80;58.40;;;;;;5054216;28;20527;-74
2021/09/08 10:15:00;;;;;;;16.43;9.17;;;22.80;58.20;;;;;;5050792;28;20445;-75
2021/09/08 10:17:32;;;;;;;15.00;9.30;;;22.90;58.50;;;;;;5050416;28;20880;-77
2021/09/08 10:20:03;;;;;;;15.57;9.37;;;23.00;57.70;;;;;;5045475;28;20450;-77
2021/09/08 10:22:29;;;;;;;12.03;8.23;;;23.00;58.00;;;;;;5036191;28;21287;-76
2021/09/08 10:24:54;;;;;;;15.57;9.03;;;23.10;58.90;;;;;;5032879;28;20442;-76
2021/09/08 10:27:27;;;;;;;17.67;10.63;;;23.10;57.40;;;;;;5033610;28;20193;-76
2021/09/08 10:29:54;;;;;;;12.73;8.77;;;23.20;58.00;;;;;;5032377;28;20196;-76
2021/09/08 10:32:21;;;;;;;18.87;10.00;;;23.20;57.70;;;;;;5033234;28;20432;-78
2021/09/08 10:34:48;;;;;;;27.70;11.10;;;23.30;57.60;;;;;;5038545;28;20441;-76
2021/09/08 10:37:14;;;;;;;14.57;8.97;;;23.40;58.00;;;;;;5034449;28;20501;-77
2021/09/08 10:39:41;;;;;;;14.33;10.10;;;23.50;58.40;;;;;;5034351;28;20478;-75
2021/09/08 10:42:08;;;;;;;16.23;9.97;;;23.60;57.80;;;;;;5036454;28;20522;-77
2021/09/08 10:44:45;;;;;;;18.30;10.50;;;23.80;56.80;;;;;;5034994;28;20440;-75
2021/09/08 10:47:13;;;;;;;19.20;9.57;;;24.10;56.40;;;;;;5035317;28;20991;-76
2021/09/08 10:49:39;;;;;;;12.50;9.07;;;24.50;55.20;;;;;;5034993;28;20575;-76
2021/09/08 10:52:13;;;;;;;22.60;10.90;;;24.90;54.20;;;;;;5038008;28;20496;-75
2021/09/08 10:54:54;;;;;;;14.90;9.07;;;25.50;53.20;;;;;;5049238;28;20467;-76
2021/09/08 10:57:39;;;;;;;16.80;8.73;;;25.90;51.40;;;;;;5051815;28;20410;-74
2021/09/08 11:00:05;;;;;;;13.60;8.87;;;26.40;50.10;;;;;;5048746;28;20454;-75
2021/09/08 11:02:31;;;;;;;13.27;9.20;;;26.80;49.70;;;;;;5041726;28;20427;-76
2021/09/08 11:05:00;;;;;;;15.77;9.00;;;27.10;47.80;;;;;;5042900;28;20450;-76
2021/09/08 11:07:25;;;;;;;19.33;9.50;;;27.50;47.80;;;;;;5047145;28;20204;-76
2021/09/08 11:09:52;;;;;;;14.17;9.17;;;27.80;47.10;;;;;;5049288;28;20431;-76
2021/09/08 11:12:17;;;;;;;11.40;8.23;;;27.90;46.50;;;;;;5050611;28;20177;-74
2021/09/08 11:14:49;;;;;;;13.00;8.20;;;28.00;46.20;;;;;;5050079;28;20468;-75
2021/09/08 11:17:25;;;;;;;13.27;8.30;;;28.30;45.50;;;;;;5052585;28;20176;-74
2021/09/08 11:19:57;;;;;;;12.20;8.50;;;28.30;45.80;;;;;;5034733;28;20446;-76
2021/09/08 11:22:23;;;;;;;13.67;8.97;;;28.50;45.70;;;;;;5037293;28;20826;-76
2021/09/08 11:25:05;;;;;;;11.50;8.60;;;28.70;44.90;;;;;;5032366;28;20439;-78
2021/09/08 11:27:31;;;;;;;12.07;7.43;;;28.90;44.50;;;;;;5033739;28;20424;-76
2021/09/08 11:30:10;;;;;;;16.67;9.30;;;29.20;43.10;;;;;;5032582;28;20482;-79
2021/09/08 11:33:10;;;;;;;16.20;8.60;;;29.40;43.10;;;;;;5027617;28;20708;-77
2021/09/08 11:35:53;;;;;;;11.47;8.37;;;29.40;42.40;;;;;;5012278;28;20444;-77
2021/09/08 11:38:20;;;;;;;11.80;8.50;;;29.10;42.70;;;;;;5012169;28;20516;-77
2021/09/08 11:41:07;;;;;;;12.97;9.50;;;28.80;44.20;;;;;;5012498;28;20424;-76
2021/09/08 11:43:36;;;;;;;11.07;8.47;;;28.80;44.10;;;;;;5010426;28;20436;-75
2021/09/08 11:46:19;;;;;;;10.93;8.47;;;28.80;44.10;;;;;;5012529;28;20571;-78
2021/09/08 11:48:53;;;;;;;12.07;8.20;;;28.80;44.20;;;;;;5012309;28;20459;-76
2021/09/08 11:51:22;;;;;;;12.03;8.30;;;28.90;43.90;;;;;;5017273;28;20472;-76
2021/09/08 11:53:52;;;;;;;11.93;8.37;;;29.10;43.50;;;;;;5018515;28;20445;-76
2021/09/08 11:56:26;;;;;;;12.77;8.20;;;29.10;43.10;;;;;;5019626;28;20507;-76
2021/09/08 11:58:54;;;;;;;11.90;7.93;;;29.10;42.80;;;;;;5015108;28;20512;-76
2021/09/08 12:01:20;;;;;;;9.77;7.13;;;29.20;43.10;;;;;;5017516;28;20906;-76
2021/09/08 12:03:56;;;;;;;10.27;7.77;;;29.30;42.20;;;;;;4997983;28;20519;-76
2021/09/08 12:06:25;;;;;;;13.80;8.00;;;29.00;43.00;;;;;;5011863;28;20914;-76
2021/09/08 12:08:54;;;;;;;12.77;8.60;;;28.60;43.50;;;;;;5012824;28;20466;-76
2021/09/08 12:11:42;;;;;;;12.50;7.23;;;28.60;43.70;;;;;;5032244;28;20470;-76
2021/09/08 12:14:26;;;;;;;11.73;8.27;;;28.40;43.10;;;;;;5028424;28;20443;-76
2021/09/08 12:17:16;;;;;;;9.87;7.57;;;28.60;44.10;;;;;;5034623;28;20514;-75
2021/09/08 12:19:43;;;;;;;11.30;7.97;;;28.70;43.70;;;;;;5033652;28;20914;-76
2021/09/08 12:22:17;;;;;;;10.43;7.37;;;29.10;43.10;;;;;;5035593;28;20430;-77
2021/09/08 12:24:48;;;;;;;11.20;7.70;;;29.00;41.90;;;;;;5027660;28;20440;-77
2021/09/08 12:27:27;;;;;;;9.37;7.40;;;28.80;41.90;;;;;;5034509;28;20416;-76
2021/09/08 12:29:58;;;;;;;11.70;7.50;;;28.30;42.30;;;;;;5029217;28;20434;-77